Time;durP1;ratioP1;P1;durP2;ratioP2;P2;SDS_P1;SDS_P2;PMS_P1;PMS_P2;Temp;Humidity;BMP_temperature;BMP_pressure;BME280_temperature;BME280_humidity;BME280_pressure;Samples;Min_cycle;Max_cycle;Signal;HPM_P1;HPM_P2
2022/09/23 00:00:58;;;;;;;15.00;10.68;;;10.90;99.90;;;;;;6276687;22;20023;-78
2022/09/23 00:03:27;;;;;;;14.02;9.60;;;10.90;99.90;;;;;;6304379;22;20489;-78
2022/09/23 00:05:57;;;;;;;15.10;10.05;;;10.90;99.90;;;;;;6305218;22;20398;-78
2022/09/23 00:08:23;;;;;;;13.50;10.57;;;10.90;99.90;;;;;;6277098;22;20411;-79
2022/09/23 00:10:49;;;;;;;13.00;10.57;;;10.90;99.90;;;;;;6304351;22;20019;-80
2022/09/23 00:13:15;;;;;;;15.00;11.50;;;10.90;99.90;;;;;;6226934;22;20030;-79
2022/09/23 00:15:41;;;;;;;19.58;11.30;;;10.90;99.90;;;;;;6305075;22;20027;-79
2022/09/23 00:18:07;;;;;;;17.58;11.55;;;10.80;99.90;;;;;;6277524;22;20391;-79
2022/09/23 00:20:35;;;;;;;16.00;11.23;;;10.80;99.90;;;;;;6304934;22;20042;-78
2022/09/23 00:23:01;;;;;;;16.15;11.43;;;10.80;99.90;;;;;;6277086;22;20023;-78
2022/09/23 00:25:28;;;;;;;15.30;12.13;;;10.80;99.90;;;;;;6277146;22;20088;-79
2022/09/23 00:27:55;;;;;;;14.13;11.63;;;10.80;99.90;;;;;;6277923;22;20015;-79
2022/09/23 00:30:22;;;;;;;15.13;12.35;;;10.80;99.90;;;;;;6305069;22;20483;-78
2022/09/23 00:32:48;;;;;;;14.05;11.63;;;10.80;99.90;;;;;;6278101;22;20098;-79
2022/09/23 00:35:15;;;;;;;16.58;11.32;;;10.80;99.90;;;;;;6277286;22;20027;-78
2022/09/23 00:37:41;;;;;;;14.70;11.13;;;10.80;99.90;;;;;;6277071;22;20080;-78
2022/09/23 00:40:07;;;;;;;17.90;12.65;;;10.80;99.90;;;;;;6279115;22;20019;-77
2022/09/23 00:42:33;;;;;;;18.98;12.75;;;10.80;99.90;;;;;;6253740;22;20027;-77
2022/09/23 00:45:00;;;;;;;13.70;12.30;;;10.80;99.90;;;;;;6279163;22;20019;-77
2022/09/23 00:47:32;;;;;;;17.58;12.18;;;10.80;99.90;;;;;;6253724;22;20102;-78
2022/09/23 00:50:23;;;;;;;16.05;12.70;;;10.80;99.90;;;;;;6279846;22;20324;-77
2022/09/23 00:52:51;;;;;;;15.23;12.18;;;10.80;99.90;;;;;;6279286;22;20076;-77
2022/09/23 00:55:26;;;;;;;17.90;13.45;;;10.80;99.90;;;;;;6306926;22;20030;-77
2022/09/23 00:57:58;;;;;;;21.17;13.70;;;10.80;99.90;;;;;;6306633;22;20030;-78
2022/09/23 01:00:24;;;;;;;20.70;15.43;;;10.80;99.90;;;;;;6278910;22;20023;-76
2022/09/23 01:02:50;;;;;;;17.98;13.63;;;10.80;99.90;;;;;;6306966;22;20030;-77
2022/09/23 01:05:17;;;;;;;19.30;13.50;;;10.80;99.90;;;;;;6278645;22;20054;-77
2022/09/23 01:07:45;;;;;;;19.05;14.35;;;10.80;99.90;;;;;;6306138;22;20030;-77
2022/09/23 01:10:13;;;;;;;15.88;14.20;;;10.80;99.90;;;;;;6279315;22;20031;-77
2022/09/23 01:12:54;;;;;;;19.67;14.82;;;10.80;99.90;;;;;;6278802;22;20023;-80
2022/09/23 01:15:43;;;;;;;20.10;14.95;;;10.90;99.90;;;;;;6306364;22;20390;-78
2022/09/23 01:18:09;;;;;;;18.98;14.73;;;10.90;99.90;;;;;;6280688;22;20065;-79
2022/09/23 01:20:58;;;;;;;19.15;14.80;;;10.90;99.90;;;;;;6253868;22;20027;-77
2022/09/23 01:24:02;;;;;;;17.98;14.70;;;10.90;99.90;;;;;;6253460;22;20072;-78
2022/09/23 01:26:43;;;;;;;18.00;15.35;;;11.00;99.90;;;;;;6279325;22;20055;-78
2022/09/23 01:29:28;;;;;;;18.67;15.38;;;11.00;99.90;;;;;;6279182;22;20359;-79
2022/09/23 01:32:17;;;;;;;19.90;15.50;;;11.00;99.90;;;;;;6306088;22;20019;-78
2022/09/23 01:34:59;;;;;;;19.38;15.77;;;11.00;99.90;;;;;;6305564;22;20027;-79
2022/09/23 01:37:51;;;;;;;20.98;15.88;;;11.00;99.90;;;;;;6307800;22;20033;-79
2022/09/23 01:40:58;;;;;;;18.55;15.57;;;11.00;99.90;;;;;;6306334;22;20030;-78
2022/09/23 01:43:36;;;;;;;20.98;15.68;;;11.00;99.90;;;;;;6127232;23;20477;-80
2022/09/23 01:46:09;;;;;;;19.67;17.65;;;11.10;99.90;;;;;;6260437;22;20499;-79
2022/09/23 01:48:43;;;;;;;16.95;15.05;;;11.00;99.90;;;;;;6306078;22;20343;-78
2022/09/23 01:51:31;;;;;;;21.13;16.58;;;11.10;99.90;;;;;;6252772;22;20397;-76
2022/09/23 01:54:19;;;;;;;19.27;15.88;;;11.10;99.90;;;;;;6306219;22;20332;-77
2022/09/23 01:56:51;;;;;;;22.25;19.30;;;11.00;99.90;;;;;;6278527;22;20039;-80
2022/09/23 01:59:27;;;;;;;22.67;18.23;;;11.10;99.90;;;;;;6278477;22;20112;-78
2022/09/23 02:01:59;;;;;;;20.08;15.88;;;11.00;99.90;;;;;;6278436;22;20027;-78
2022/09/23 02:04:31;;;;;;;25.33;18.70;;;11.00;99.90;;;;;;6306228;22;20023;-79
2022/09/23 02:07:19;;;;;;;19.60;16.60;;;11.00;99.90;;;;;;6278825;22;20038;-78
2022/09/23 02:09:53;;;;;;;22.92;18.13;;;11.00;99.90;;;;;;6252948;22;20491;-77
2022/09/23 02:12:21;;;;;;;;;;;10.90;99.90;;;;;;6278758;22;20086;-78
2022/09/23 02:14:57;;;;;;;23.40;18.08;;;10.90;99.90;;;;;;6252862;22;20293;-78
2022/09/23 02:17:32;;;;;;;22.13;18.52;;;10.90;99.90;;;;;;6277975;22;20098;-78
2022/09/23 02:20:04;;;;;;;22.55;18.08;;;10.80;99.90;;;;;;6277887;22;20027;-78
2022/09/23 02:22:50;;;;;;;20.83;15.82;;;10.80;99.90;;;;;;6278486;22;20019;-78
2022/09/23 02:25:20;;;;;;;22.08;18.60;;;10.70;99.90;;;;;;6279092;22;20027;-79
2022/09/23 02:28:10;;;;;;;24.05;16.38;;;10.70;99.90;;;;;;6278514;22;20023;-78
2022/09/23 02:30:53;;;;;;;23.13;19.27;;;10.60;99.90;;;;;;6277878;22;20422;-78
2022/09/23 02:33:38;;;;;;;23.55;18.33;;;10.60;99.90;;;;;;6252427;22;20023;-77
2022/09/23 02:36:19;;;;;;;22.33;18.13;;;10.50;99.90;;;;;;6278179;22;20098;-80
2022/09/23 02:38:52;;;;;;;22.65;17.83;;;10.50;99.90;;;;;;6306046;22;20015;-78
2022/09/23 02:41:50;;;;;;;21.92;18.02;;;10.40;99.90;;;;;;6277978;22;20110;-78
2022/09/23 02:44:18;;;;;;;23.63;17.92;;;10.40;99.90;;;;;;6252835;22;20139;-78
2022/09/23 02:46:45;;;;;;;23.48;18.05;;;10.40;99.90;;;;;;6279011;22;20020;-78
2022/09/23 02:49:26;;;;;;;26.38;19.20;;;10.30;99.90;;;;;;6307138;22;20059;-77
2022/09/23 02:51:53;;;;;;;22.02;17.15;;;10.30;99.90;;;;;;6306443;22;20037;-78
2022/09/23 02:54:22;;;;;;;24.08;19.27;;;10.30;99.90;;;;;;6278144;22;20023;-79
2022/09/23 02:56:49;;;;;;;23.23;19.15;;;10.30;99.90;;;;;;6305355;22;20023;-78
2022/09/23 02:59:18;;;;;;;20.25;17.15;;;10.30;99.90;;;;;;6306010;22;20339;-78
2022/09/23 03:02:19;;;;;;;22.08;18.20;;;10.30;99.90;;;;;;6305375;22;20055;-77
2022/09/23 03:05:29;;;;;;;21.13;16.67;;;10.30;99.90;;;;;;6252692;22;20023;-77
2022/09/23 03:08:28;;;;;;;22.55;17.95;;;10.30;99.90;;;;;;6252695;22;20048;-77
2022/09/23 03:11:04;;;;;;;20.73;15.75;;;10.20;99.90;;;;;;6305401;22;20023;-77
2022/09/23 03:13:37;;;;;;;20.90;17.55;;;10.20;99.90;;;;;;6277584;22;20019;-78
2022/09/23 03:16:28;;;;;;;25.02;18.20;;;10.20;99.90;;;;;;6278354;22;20044;-79
2022/09/23 03:19:03;;;;;;;24.90;18.20;;;10.20;99.90;;;;;;6278115;22;20384;-78
2022/09/23 03:21:34;;;;;;;;;;;10.10;99.90;;;;;;6252949;22;20457;-78
2022/09/23 03:24:04;;;;;;;24.58;19.35;;;10.10;99.90;;;;;;6277457;22;19919;-78
2022/09/23 03:26:38;;;;;;;23.77;18.67;;;10.10;99.90;;;;;;6305082;22;20022;-78
2022/09/23 03:29:10;;;;;;;26.38;18.40;;;10.00;99.90;;;;;;6225533;22;20023;-77
2022/09/23 03:31:41;;;;;;;21.45;16.73;;;10.00;99.90;;;;;;6277999;22;20462;-77
2022/09/23 03:34:27;;;;;;;24.27;19.13;;;10.00;99.90;;;;;;6278671;22;20027;-78
2022/09/23 03:37:12;;;;;;;28.05;19.30;;;10.00;99.90;;;;;;6252626;22;20030;-77
2022/09/23 03:40:05;;;;;;;23.60;18.83;;;9.90;99.90;;;;;;6277411;22;20031;-77
2022/09/23 03:42:34;;;;;;;20.70;17.58;;;9.90;99.90;;;;;;6305213;22;20657;-79
2022/09/23 03:45:07;;;;;;;24.83;19.42;;;9.90;99.90;;;;;;6277642;22;20030;-79
2022/09/23 03:47:34;;;;;;;21.10;16.97;;;9.80;99.90;;;;;;6277392;22;20098;-78
2022/09/23 03:50:00;;;;;;;24.95;20.17;;;9.80;99.90;;;;;;6304718;22;20348;-79
2022/09/23 03:52:27;;;;;;;23.10;17.02;;;9.80;99.90;;;;;;6278425;22;20092;-77
2022/09/23 03:54:53;;;;;;;23.30;17.45;;;9.80;99.90;;;;;;6252156;22;20056;-78
2022/09/23 03:57:21;;;;;;;23.83;17.75;;;9.80;99.90;;;;;;6277110;22;20030;-77
2022/09/23 03:59:50;;;;;;;20.63;16.83;;;9.80;99.90;;;;;;6304931;22;20118;-77
2022/09/23 04:02:17;;;;;;;23.08;18.65;;;9.80;99.90;;;;;;6251935;22;20023;-78
2022/09/23 04:04:44;;;;;;;26.95;18.83;;;9.80;99.90;;;;;;6252191;22;20073;-78
2022/09/23 04:07:11;;;;;;;24.85;18.05;;;9.80;99.90;;;;;;6305082;22;20094;-79
2022/09/23 04:09:38;;;;;;;21.25;18.30;;;9.70;99.90;;;;;;6305036;22;20026;-78
2022/09/23 04:12:04;;;;;;;20.95;17.58;;;9.70;99.90;;;;;;6305658;22;20066;-78
2022/09/23 04:14:30;;;;;;;23.05;17.98;;;9.70;99.90;;;;;;6307545;22;20387;-79
2022/09/23 04:16:56;;;;;;;23.95;18.17;;;9.70;99.90;;;;;;6306011;22;20067;-78
2022/09/23 04:19:22;;;;;;;24.42;18.45;;;9.70;99.90;;;;;;6306312;22;20093;-79
2022/09/23 04:21:52;;;;;;;24.83;18.27;;;9.70;99.90;;;;;;6227055;22;20456;-79
2022/09/23 04:24:18;;;;;;;26.30;19.15;;;9.70;99.90;;;;;;6306235;22;20058;-79
2022/09/23 04:26:44;;;;;;;22.20;17.30;;;9.70;99.90;;;;;;6305538;22;20050;-79
2022/09/23 04:29:10;;;;;;;21.08;15.57;;;9.70;99.90;;;;;;6270003;22;20023;-79
2022/09/23 04:31:37;;;;;;;22.58;16.92;;;9.70;99.90;;;;;;6221272;22;20034;-79
2022/09/23 04:34:03;;;;;;;24.13;17.90;;;9.70;99.90;;;;;;6221709;22;20063;-78
2022/09/23 04:36:29;;;;;;;17.88;14.48;;;9.70;99.90;;;;;;6221541;22;20024;-80
2022/09/23 04:38:55;;;;;;;26.15;16.42;;;9.70;99.90;;;;;;6273688;22;20474;-78
2022/09/23 04:41:21;;;;;;;27.95;17.92;;;9.70;99.90;;;;;;6246915;22;20028;-78
2022/09/23 04:43:48;;;;;;;29.73;20.55;;;9.80;99.90;;;;;;6246713;22;20082;-78
2022/09/23 04:46:14;;;;;;;23.77;19.27;;;9.80;99.90;;;;;;6246419;22;20359;-78
2022/09/23 04:48:41;;;;;;;26.45;18.67;;;9.80;99.90;;;;;;6273518;22;20062;-79
2022/09/23 04:51:13;;;;;;;23.15;17.27;;;9.80;99.90;;;;;;6273665;22;20070;-78
2022/09/23 04:53:42;;;;;;;25.25;18.73;;;9.90;99.90;;;;;;6273918;22;20090;-78
2022/09/23 04:56:17;;;;;;;25.73;18.17;;;10.00;99.90;;;;;;6246551;22;20016;-78
2022/09/23 04:58:44;;;;;;;27.08;18.48;;;10.00;99.90;;;;;;6247077;22;20023;-80
2022/09/23 05:01:33;;;;;;;23.80;18.02;;;10.10;99.90;;;;;;6246779;22;20452;-79
2022/09/23 05:04:04;;;;;;;22.38;17.25;;;10.10;99.90;;;;;;6273834;22;20027;-78
2022/09/23 05:06:33;;;;;;;23.70;17.23;;;10.10;99.90;;;;;;6246429;22;20322;-78
2022/09/23 05:09:00;;;;;;;24.02;17.02;;;10.10;99.90;;;;;;6273871;22;20016;-77
2022/09/23 05:11:29;;;;;;;25.30;17.70;;;10.10;99.90;;;;;;6246353;22;20027;-79
2022/09/23 05:13:55;;;;;;;21.63;16.17;;;10.20;99.90;;;;;;6246672;22;20016;-78
2022/09/23 05:16:22;;;;;;;22.10;17.27;;;10.20;99.90;;;;;;6246863;22;20046;-80
2022/09/23 05:18:50;;;;;;;26.65;17.80;;;10.20;99.90;;;;;;6274978;22;20541;-80
2022/09/23 05:21:24;;;;;;;25.48;18.52;;;10.20;99.90;;;;;;6273812;22;20101;-79
2022/09/23 05:23:57;;;;;;;23.58;18.00;;;10.20;99.90;;;;;;6274801;22;20023;-78
2022/09/23 05:26:29;;;;;;;23.88;16.77;;;10.20;99.90;;;;;;6248782;22;20031;-79
2022/09/23 05:28:57;;;;;;;24.08;17.02;;;10.20;99.90;;;;;;6222618;22;20030;-78
2022/09/23 05:31:25;;;;;;;25.17;19.60;;;10.10;99.90;;;;;;6276225;22;20165;-79
2022/09/23 05:33:56;;;;;;;20.05;16.75;;;10.20;99.90;;;;;;6248164;22;20020;-78
2022/09/23 05:36:23;;;;;;;22.95;18.27;;;10.10;99.90;;;;;;6223242;22;20035;-77
2022/09/23 05:38:50;;;;;;;21.10;16.83;;;10.10;99.90;;;;;;6249157;22;20349;-78
2022/09/23 05:41:17;;;;;;;23.15;18.63;;;10.10;99.90;;;;;;6275810;22;20063;-78
2022/09/23 05:43:43;;;;;;;25.58;17.45;;;10.10;99.90;;;;;;6275737;22;20028;-78
2022/09/23 05:46:15;;;;;;;21.92;15.73;;;10.10;99.90;;;;;;6275640;22;20024;-78
2022/09/23 05:48:42;;;;;;;21.85;15.70;;;10.10;99.90;;;;;;6248733;22;20023;-77
2022/09/23 05:51:12;;;;;;;22.08;16.33;;;10.10;99.90;;;;;;6275249;22;20023;-78
2022/09/23 05:53:40;;;;;;;27.35;19.45;;;10.10;99.90;;;;;;6248324;22;20643;-77
2022/09/23 05:56:06;;;;;;;23.08;16.83;;;10.10;99.90;;;;;;6275594;22;20349;-77
2022/09/23 05:58:32;;;;;;;26.25;18.55;;;10.10;99.90;;;;;;6248336;22;20019;-77
2022/09/23 06:00:58;;;;;;;26.55;17.92;;;10.20;99.90;;;;;;6247975;22;20024;-77
2022/09/23 06:03:24;;;;;;;23.70;18.23;;;10.20;99.90;;;;;;6248184;22;20103;-78
2022/09/23 06:05:54;;;;;;;22.80;17.27;;;10.30;99.90;;;;;;6247711;22;20023;-80
2022/09/23 06:08:22;;;;;;;23.67;17.65;;;10.20;99.90;;;;;;6247457;22;20019;-80
2022/09/23 06:10:48;;;;;;;24.80;17.88;;;10.30;99.90;;;;;;6274872;22;20027;-79
2022/09/23 06:13:17;;;;;;;24.73;16.92;;;10.30;99.90;;;;;;6247618;22;20074;-76
2022/09/23 06:15:43;;;;;;;18.90;15.40;;;10.40;99.90;;;;;;6247930;22;20078;-79
2022/09/23 06:18:10;;;;;;;21.05;16.42;;;10.40;99.90;;;;;;6247313;22;20024;-79
2022/09/23 06:20:36;;;;;;;24.55;16.83;;;10.50;99.90;;;;;;6275155;22;20024;-76
2022/09/23 06:23:07;;;;;;;22.17;15.73;;;10.60;99.90;;;;;;6247399;22;20023;-76
2022/09/23 06:25:35;;;;;;;22.35;16.77;;;10.60;99.90;;;;;;6223120;22;20078;-79
2022/09/23 06:28:01;;;;;;;23.42;16.02;;;10.70;99.90;;;;;;6274543;22;20451;-79
2022/09/23 06:30:28;;;;;;;21.77;15.98;;;10.80;99.90;;;;;;6247119;22;20146;-79
2022/09/23 06:32:56;;;;;;;23.80;15.98;;;10.80;99.90;;;;;;6197058;22;20028;-76
2022/09/23 06:35:26;;;;;;;19.77;14.65;;;10.90;99.90;;;;;;6247072;22;20292;-77
2022/09/23 06:37:53;;;;;;;31.90;16.50;;;10.90;99.90;;;;;;6247583;22;20043;-76
2022/09/23 06:40:21;;;;;;;20.30;15.73;;;11.00;99.90;;;;;;6222249;22;20034;-76
2022/09/23 06:42:47;;;;;;;20.73;16.90;;;11.00;99.90;;;;;;6248348;22;20028;-78
2022/09/23 06:45:15;;;;;;;18.45;15.07;;;11.10;99.90;;;;;;6248124;22;20381;-78
2022/09/23 06:47:42;;;;;;;20.20;15.68;;;11.10;99.90;;;;;;6248041;22;20024;-79
2022/09/23 06:50:11;;;;;;;17.45;14.60;;;11.10;99.90;;;;;;6250509;22;20030;-79
2022/09/23 06:52:38;;;;;;;19.48;15.48;;;11.10;99.90;;;;;;6275074;22;20098;-78
2022/09/23 06:55:04;;;;;;;22.15;15.63;;;11.10;99.90;;;;;;6274908;22;20042;-77
2022/09/23 06:57:31;;;;;;;21.05;15.65;;;11.20;99.90;;;;;;6275392;22;20018;-78
2022/09/23 06:59:58;;;;;;;22.73;14.93;;;11.30;99.90;;;;;;6248270;22;20473;-77
2022/09/23 07:02:27;;;;;;;19.88;16.27;;;11.30;99.90;;;;;;6247186;22;20456;-77
2022/09/23 07:04:56;;;;;;;18.85;14.40;;;11.50;99.90;;;;;;6247422;22;20031;-77
2022/09/23 07:07:25;;;;;;;19.42;15.75;;;11.50;99.90;;;;;;6274075;22;20463;-78
2022/09/23 07:09:51;;;;;;;20.10;15.25;;;11.60;99.90;;;;;;6246932;22;20038;-77
2022/09/23 07:12:17;;;;;;;20.23;14.82;;;11.70;99.90;;;;;;6246769;22;20020;-78
2022/09/23 07:14:44;;;;;;;20.08;15.20;;;11.90;99.90;;;;;;6221456;22;20028;-78
2022/09/23 07:17:11;;;;;;;18.65;13.55;;;12.10;99.90;;;;;;6221520;22;20098;-78
2022/09/23 07:19:37;;;;;;;19.15;13.88;;;12.20;99.90;;;;;;6247228;22;20030;-78
2022/09/23 07:22:04;;;;;;;18.90;13.88;;;12.40;99.90;;;;;;6246883;22;20461;-78
2022/09/23 07:24:30;;;;;;;20.77;14.52;;;12.50;99.90;;;;;;6247091;22;20485;-78
2022/09/23 07:26:56;;;;;;;17.00;12.93;;;12.50;99.90;;;;;;6274175;22;20487;-78
2022/09/23 07:29:22;;;;;;;19.95;13.88;;;12.60;99.90;;;;;;6273855;22;20383;-78
2022/09/23 07:31:48;;;;;;;17.08;13.73;;;12.70;99.90;;;;;;6246875;22;20074;-78
2022/09/23 07:34:14;;;;;;;18.98;12.65;;;12.80;99.90;;;;;;6274517;22;20016;-78
2022/09/23 07:36:40;;;;;;;16.98;12.70;;;12.90;99.90;;;;;;6221372;22;20019;-77
2022/09/23 07:39:10;;;;;;;19.05;13.93;;;12.90;99.90;;;;;;6247119;22;20023;-78
2022/09/23 07:41:36;;;;;;;16.92;13.00;;;13.00;99.90;;;;;;6274706;22;20023;-78
2022/09/23 07:44:04;;;;;;;18.92;14.57;;;13.00;99.90;;;;;;6221808;22;20082;-77
2022/09/23 07:46:32;;;;;;;17.98;13.60;;;13.00;99.90;;;;;;6274190;22;20032;-80
2022/09/23 07:49:00;;;;;;;16.73;13.88;;;13.00;99.90;;;;;;6247050;22;20016;-76
2022/09/23 07:51:29;;;;;;;21.13;12.95;;;13.00;99.90;;;;;;6221386;22;20023;-76
2022/09/23 07:53:55;;;;;;;18.45;13.10;;;13.00;99.90;;;;;;6247506;22;20015;-78
2022/09/23 07:56:25;;;;;;;18.67;13.27;;;13.10;99.90;;;;;;6274335;22;20027;-78
2022/09/23 07:59:02;;;;;;;20.42;13.88;;;13.10;99.90;;;;;;6247189;22;20475;-78
2022/09/23 08:01:40;;;;;;;16.63;13.45;;;13.20;99.90;;;;;;6250471;22;20020;-77
2022/09/23 08:04:12;;;;;;;20.35;13.90;;;13.20;99.90;;;;;;6274681;22;20023;-78
2022/09/23 08:06:43;;;;;;;18.50;13.13;;;13.30;99.90;;;;;;6246705;22;20102;-78
2022/09/23 08:09:10;;;;;;;17.75;13.65;;;13.40;99.90;;;;;;6274641;22;20091;-79
2022/09/23 08:11:40;;;;;;;19.55;12.80;;;13.40;99.90;;;;;;6274840;22;20510;-77
2022/09/23 08:14:08;;;;;;;20.35;13.90;;;13.40;99.90;;;;;;6275245;22;20034;-78
2022/09/23 08:16:34;;;;;;;20.42;14.52;;;13.40;99.90;;;;;;6222535;22;20054;-78
2022/09/23 08:19:01;;;;;;;17.35;13.13;;;13.50;99.90;;;;;;6247498;22;20060;-79
2022/09/23 08:21:27;;;;;;;18.05;12.30;;;13.70;99.90;;;;;;6274748;22;20027;-80
2022/09/23 08:23:53;;;;;;;17.05;13.43;;;13.70;99.90;;;;;;6247519;22;20030;-78
2022/09/23 08:26:19;;;;;;;15.90;11.77;;;13.70;99.90;;;;;;6247639;22;20023;-78
2022/09/23 08:28:46;;;;;;;16.50;12.48;;;13.80;99.90;;;;;;6247165;22;20355;-77
2022/09/23 08:31:13;;;;;;;19.23;12.95;;;13.80;99.90;;;;;;6242903;23;20075;-79
2022/09/23 08:33:40;;;;;;;14.80;11.45;;;13.90;99.90;;;;;;6218274;23;20020;-78
2022/09/23 08:36:07;;;;;;;16.52;11.68;;;13.90;99.90;;;;;;6245093;22;20024;-79
2022/09/23 08:38:33;;;;;;;14.95;12.40;;;14.00;99.90;;;;;;6244742;22;20036;-78
2022/09/23 08:41:35;;;;;;;18.52;11.73;;;14.00;99.90;;;;;;6217450;23;20016;-78
2022/09/23 08:44:15;;;;;;;17.77;11.52;;;14.10;99.90;;;;;;6240086;23;20020;-79
2022/09/23 08:47:00;;;;;;;16.92;12.40;;;14.20;99.90;;;;;;6243989;22;20028;-79
2022/09/23 08:49:40;;;;;;;17.38;11.48;;;14.30;99.90;;;;;;6243434;22;20082;-78
2022/09/23 08:52:22;;;;;;;14.30;10.73;;;14.50;99.90;;;;;;6241905;23;20038;-78
2022/09/23 08:54:48;;;;;;;16.70;12.27;;;14.60;99.90;;;;;;6243265;22;20484;-79
2022/09/23 08:57:36;;;;;;;18.33;11.93;;;14.80;99.90;;;;;;6243699;22;20060;-79
2022/09/23 09:00:04;;;;;;;15.13;11.70;;;14.90;99.90;;;;;;6242720;23;20081;-78
2022/09/23 09:02:35;;;;;;;14.88;11.27;;;14.90;99.90;;;;;;6243235;23;20051;-77
2022/09/23 09:05:07;;;;;;;14.52;11.05;;;14.90;99.90;;;;;;6243329;23;20054;-79
2022/09/23 09:07:37;;;;;;;13.32;10.80;;;14.90;99.90;;;;;;6243566;23;20054;-77
2022/09/23 09:10:14;;;;;;;15.60;11.32;;;14.80;99.90;;;;;;6244750;22;20060;-79
2022/09/23 09:13:01;;;;;;;15.52;11.98;;;14.80;99.90;;;;;;6245189;22;20057;-78
2022/09/23 09:15:28;;;;;;;16.08;11.18;;;14.80;99.90;;;;;;6243272;23;20028;-78
2022/09/23 09:18:11;;;;;;;16.20;11.70;;;14.80;99.90;;;;;;6243270;23;20054;-79
2022/09/23 09:20:58;;;;;;;17.30;11.88;;;14.80;99.90;;;;;;6245019;22;20103;-78
2022/09/23 09:23:43;;;;;;;15.73;11.25;;;14.80;99.90;;;;;;6243064;23;20031;-78
2022/09/23 09:26:24;;;;;;;15.57;11.00;;;14.80;99.90;;;;;;6218059;23;20035;-78
2022/09/23 09:29:15;;;;;;;14.90;11.65;;;14.80;99.90;;;;;;6243081;22;20028;-78
2022/09/23 09:31:47;;;;;;;17.92;11.38;;;14.80;99.90;;;;;;6245145;23;20027;-78
2022/09/23 09:34:35;;;;;;;13.85;10.63;;;14.80;99.90;;;;;;6243378;23;20459;-78
2022/09/23 09:37:05;;;;;;;15.77;10.82;;;14.90;99.90;;;;;;6243334;23;20448;-78
2022/09/23 09:39:31;;;;;;;21.48;12.93;;;14.90;99.90;;;;;;6243380;23;20021;-78
2022/09/23 09:41:59;;;;;;;18.85;12.00;;;14.90;99.90;;;;;;6243692;23;20016;-79
2022/09/23 09:44:36;;;;;;;17.98;12.07;;;15.00;99.90;;;;;;6244971;22;20024;-78
2022/09/23 09:47:17;;;;;;;17.80;11.27;;;15.00;99.90;;;;;;6246066;23;20047;-77
2022/09/23 09:50:20;;;;;;;16.00;12.15;;;15.10;99.90;;;;;;6242995;23;20028;-78
2022/09/23 09:52:47;;;;;;;18.20;12.15;;;15.10;99.90;;;;;;6217648;23;20020;-78
2022/09/23 09:55:13;;;;;;;19.33;11.70;;;15.10;99.90;;;;;;6242897;23;20020;-78
2022/09/23 09:57:49;;;;;;;15.82;11.85;;;15.30;99.90;;;;;;6243240;23;20024;-78
2022/09/23 10:00:17;;;;;;;15.10;10.98;;;15.30;99.90;;;;;;6245813;22;20030;-79
2022/09/23 10:02:44;;;;;;;17.00;11.07;;;15.40;99.90;;;;;;6243537;23;20024;-79
2022/09/23 10:05:32;;;;;;;16.83;11.77;;;15.50;99.90;;;;;;6243973;22;20039;-79
2022/09/23 10:08:23;;;;;;;14.48;11.18;;;15.60;99.90;;;;;;6244494;22;20378;-79
2022/09/23 10:10:54;;;;;;;15.60;12.27;;;15.70;99.90;;;;;;6232006;23;20444;-79
2022/09/23 10:13:23;;;;;;;15.95;12.23;;;15.60;99.90;;;;;;6242471;23;20024;-79
2022/09/23 10:15:53;;;;;;;17.42;12.68;;;15.60;99.90;;;;;;6217003;23;20016;-77
2022/09/23 10:18:25;;;;;;;15.35;11.63;;;15.70;99.90;;;;;;6245475;22;20040;-79
2022/09/23 10:21:09;;;;;;;16.30;12.20;;;15.80;99.90;;;;;;6244664;22;20534;-80
2022/09/23 10:23:41;;;;;;;18.80;11.47;;;15.90;99.90;;;;;;6243335;23;20039;-79
2022/09/23 10:26:09;;;;;;;19.40;12.60;;;15.90;99.90;;;;;;6221554;23;20032;-77
2022/09/23 10:28:51;;;;;;;17.60;11.95;;;15.80;99.90;;;;;;6245105;22;20020;-79
2022/09/23 10:31:27;;;;;;;16.58;11.43;;;15.90;99.90;;;;;;6276153;22;20034;-78
2022/09/23 10:33:59;;;;;;;17.85;12.00;;;16.00;99.90;;;;;;6226722;22;20028;-78
2022/09/23 10:36:27;;;;;;;15.13;11.52;;;16.10;99.90;;;;;;6280835;22;20067;-76
2022/09/23 10:48:09;;;;;;;17.10;12.40;;;16.30;99.90;;;;;;6248538;22;20562;-79
2022/09/23 10:50:42;;;;;;;17.75;12.95;;;16.50;99.90;;;;;;6247696;22;20028;-80
2022/09/23 10:53:17;;;;;;;16.88;12.55;;;16.60;99.90;;;;;;6274852;22;20391;-77
2022/09/23 10:55:49;;;;;;;;;;;16.70;99.90;;;;;;6247480;22;20081;-78
2022/09/23 10:59:06;;;;;;;15.63;11.68;;;16.80;99.90;;;;;;6247247;22;19915;-79
2022/09/23 11:01:41;;;;;;;17.40;12.10;;;16.90;99.90;;;;;;6207130;22;20073;-78
2022/09/23 11:04:27;;;;;;;17.35;12.20;;;17.00;99.90;;;;;;6248401;22;20349;-78
2022/09/23 11:07:06;;;;;;;18.08;13.82;;;17.20;99.90;;;;;;6247330;22;20091;-78
2022/09/23 11:09:47;;;;;;;20.20;12.55;;;17.40;99.90;;;;;;6221680;22;20063;-81
2022/09/23 11:12:37;;;;;;;16.05;13.00;;;17.40;99.90;;;;;;6246883;22;20539;-79
2022/09/23 11:15:02;;;;;;;16.88;11.88;;;17.50;99.90;;;;;;6275225;22;20134;-78
2022/09/23 11:17:37;;;;;;;15.75;11.68;;;17.50;99.90;;;;;;6247819;22;20412;-79
2022/09/23 11:20:32;;;;;;;16.75;12.50;;;17.60;99.90;;;;;;6274432;22;20027;-79
2022/09/23 11:23:47;;;;;;;19.55;12.15;;;17.80;99.90;;;;;;6248354;22;20031;-80
2022/09/23 11:26:40;;;;;;;17.17;11.65;;;18.10;99.90;;;;;;6166225;22;20076;-79
2022/09/23 11:29:18;;;;;;;17.85;12.18;;;18.10;99.90;;;;;;6246845;22;20023;-78
2022/09/23 11:31:54;;;;;;;19.92;12.05;;;18.00;99.90;;;;;;6274846;22;20027;-79
2022/09/23 11:34:26;;;;;;;17.50;12.57;;;18.00;99.90;;;;;;6223452;22;20023;-78
2022/09/23 11:36:58;;;;;;;15.15;10.82;;;18.00;99.90;;;;;;6274120;22;20104;-78
2022/09/23 11:39:43;;;;;;;17.30;11.68;;;18.00;99.90;;;;;;6274562;22;20336;-80
2022/09/23 11:42:20;;;;;;;16.38;12.07;;;18.10;99.90;;;;;;6246671;22;20020;-79
2022/09/23 11:44:53;;;;;;;15.23;11.60;;;18.10;99.90;;;;;;6273832;22;20101;-79
2022/09/23 11:47:36;;;;;;;15.00;11.43;;;18.20;99.90;;;;;;6274466;22;20026;-79
2022/09/23 11:50:13;;;;;;;16.02;12.32;;;18.30;99.90;;;;;;6274914;22;20046;-78
2022/09/23 11:53:06;;;;;;;14.55;11.07;;;18.20;99.90;;;;;;6247068;22;20051;-78
2022/09/23 11:55:43;;;;;;;13.93;10.98;;;18.10;99.90;;;;;;6274338;22;20084;-81
2022/09/23 11:58:34;;;;;;;15.27;11.82;;;18.00;99.90;;;;;;6246552;22;20059;-80
2022/09/23 12:01:08;;;;;;;22.08;13.30;;;17.90;99.90;;;;;;6274355;22;20049;-80
2022/09/23 12:04:06;;;;;;;20.02;12.18;;;17.80;99.90;;;;;;6221240;22;20016;-80
2022/09/23 12:06:39;;;;;;;18.60;11.50;;;17.80;99.90;;;;;;6246857;22;20059;-80
2022/09/23 12:09:16;;;;;;;21.70;13.18;;;17.70;99.90;;;;;;6246874;22;20102;-80
2022/09/23 12:12:04;;;;;;;17.30;12.52;;;17.50;99.90;;;;;;6273864;22;20094;-79
2022/09/23 12:14:39;;;;;;;16.60;12.88;;;17.40;99.90;;;;;;6274102;22;20374;-79
2022/09/23 12:17:30;;;;;;;16.30;12.90;;;17.30;99.90;;;;;;6246822;22;20023;-79
2022/09/23 12:20:08;;;;;;;18.88;12.43;;;17.30;99.90;;;;;;6246922;22;20035;-79
2022/09/23 12:23:12;;;;;;;15.50;11.98;;;17.30;99.90;;;;;;6273620;22;20095;-80
2022/09/23 12:25:45;;;;;;;15.55;11.80;;;17.30;99.90;;;;;;6275067;22;20016;-79
2022/09/23 12:28:20;;;;;;;18.33;12.73;;;17.40;99.90;;;;;;6247839;22;20077;-81
2022/09/23 12:30:48;;;;;;;20.52;14.10;;;17.30;99.90;;;;;;6275463;22;20023;-79
2022/09/23 12:33:26;;;;;;;17.55;13.05;;;17.20;99.90;;;;;;6248324;22;20020;-79
2022/09/23 12:35:54;;;;;;;20.50;13.88;;;17.20;99.90;;;;;;6249900;22;20012;-80
2022/09/23 12:38:43;;;;;;;18.08;12.10;;;17.20;99.90;;;;;;6224490;22;20037;-79
2022/09/23 12:41:27;;;;;;;15.90;12.45;;;17.20;99.90;;;;;;6277150;22;20020;-78
2022/09/23 12:44:25;;;;;;;20.15;13.65;;;17.20;99.90;;;;;;6201994;22;20031;-77
2022/09/23 12:47:13;;;;;;;20.00;14.57;;;17.10;99.90;;;;;;6277138;22;20085;-77
2022/09/23 12:49:41;;;;;;;21.08;13.65;;;17.00;99.90;;;;;;6249992;22;20019;-80
2022/09/23 12:52:16;;;;;;;19.40;13.85;;;17.00;99.90;;;;;;6276683;22;20035;-79
2022/09/23 12:54:44;;;;;;;21.88;14.02;;;16.90;99.90;;;;;;6249929;22;20102;-78
2022/09/23 12:57:32;;;;;;;18.75;13.25;;;16.80;99.90;;;;;;6276903;22;20539;-78
2022/09/23 13:00:15;;;;;;;18.60;13.38;;;16.70;99.90;;;;;;6251108;22;20470;-78
2022/09/23 13:06:37;;;;;;;20.13;13.45;;;16.70;99.90;;;;;;6277133;22;20031;-78
2022/09/23 13:08:31;;;;;;;19.42;13.85;;;16.70;99.90;;;;;;6276683;22;20062;-77
2022/09/23 13:11:01;;;;;;;20.40;14.85;;;16.60;99.90;;;;;;6225232;22;20054;-77
2022/09/23 13:13:35;;;;;;;18.05;13.27;;;16.60;99.90;;;;;;6200459;22;20028;-78